Time;durP1;ratioP1;P1;durP2;ratioP2;P2;SDS_P1;SDS_P2;PMS_P1;PMS_P2;Temp;Humidity;BMP_temperature;BMP_pressure;BME280_temperature;BME280_humidity;BME280_pressure;Samples;Min_cycle;Max_cycle;Signal;HPM_P1;HPM_P2
2021/08/04 00:00:00;;;;;;;5.28;1.95;;;;;;;;;;4999340;28;20026;-81
2021/08/04 00:02:26;;;;;;;2.80;1.90;;;;;;;;;;4982538;28;20034;-81
2021/08/04 00:04:52;;;;;;;3.00;1.63;;;;;;;;;;4982097;28;20125;-81
2021/08/04 00:07:18;;;;;;;3.38;2.00;;;;;;;;;;4982545;28;20026;-81
2021/08/04 00:09:44;;;;;;;6.35;1.92;;;;;;;;;;4997163;28;20034;-81
2021/08/04 00:12:11;;;;;;;4.40;1.85;;;;;;;;;;4981797;28;20109;-81
2021/08/04 00:14:37;;;;;;;3.05;2.10;;;;;;;;;;4999641;28;20394;-81
2021/08/04 00:17:03;;;;;;;4.40;1.88;;;;;;;;;;4999648;28;20090;-82
2021/08/04 00:19:29;;;;;;;3.45;1.60;;;;;;;;;;4999339;28;20383;-82
2021/08/04 00:21:55;;;;;;;2.88;1.70;;;;;;;;;;5000891;28;20042;-82
2021/08/04 00:24:21;;;;;;;3.42;1.85;;;;;;;;;;4999221;28;20102;-81
2021/08/04 00:26:47;;;;;;;2.67;1.45;;;;;;;;;;4999766;28;20109;-81
2021/08/04 00:29:13;;;;;;;5.95;1.67;;;;;;;;;;4999015;28;20490;-81
2021/08/04 00:31:39;;;;;;;3.30;1.83;;;;;;;;;;5000236;28;20066;-81
2021/08/04 00:34:05;;;;;;;4.70;1.88;;;;;;;;;;4999937;28;20023;-82
2021/08/04 00:36:31;;;;;;;2.55;1.83;;;;;;;;;;5000186;28;20069;-81
2021/08/04 00:38:58;;;;;;;2.67;1.90;;;;;;;;;;4984806;28;20031;-81
2021/08/04 00:41:24;;;;;;;4.07;1.67;;;;;;;;;;4980366;28;20027;-81
2021/08/04 00:43:50;;;;;;;2.40;1.77;;;;;;;;;;4962838;28;20035;-81
2021/08/04 00:46:16;;;;;;;3.95;1.52;;;;;;;;;;4979712;28;20492;-81
2021/08/04 00:48:43;;;;;;;3.33;2.05;;;;;;;;;;4962233;28;20111;-81
2021/08/04 00:51:09;;;;;;;3.60;1.70;;;;;;;;;;4961038;28;20034;-82
2021/08/04 00:53:36;;;;;;;4.85;1.67;;;;;;;;;;4979920;28;20491;-79
2021/08/04 00:56:02;;;;;;;3.65;1.70;;;;;;;;;;4961999;28;20029;-81
2021/08/04 00:58:32;;;;;;;2.15;1.60;;;;;;;;;;4980494;28;20102;-81
2021/08/04 01:01:10;;;;;;;4.20;1.70;;;;;;;;;;4978671;28;20031;-81
2021/08/04 01:03:39;;;;;;;3.97;2.20;;;;;;;;;;4980390;28;20027;-81
2021/08/04 01:06:09;;;;;;;3.92;1.55;;;;;;;;;;4988920;28;20042;-81
2021/08/04 01:08:38;;;;;;;3.85;2.08;;;;;;;;;;4999944;28;20048;-80
2021/08/04 01:11:05;;;;;;;2.85;2.08;;;;;;;;;;4999555;28;20113;-80
2021/08/04 01:13:31;;;;;;;3.88;2.00;;;;;;;;;;5005915;28;20037;-81
2021/08/04 01:16:05;;;;;;;3.35;2.00;;;;;;;;;;5006700;28;20081;-81
2021/08/04 01:18:36;;;;;;;4.50;2.28;;;;;;;;;;5000928;28;20038;-81
2021/08/04 01:21:03;;;;;;;3.53;2.08;;;;;;;;;;5001267;28;20030;-80
2021/08/04 01:23:47;;;;;;;4.03;1.95;;;;;;;;;;4999668;28;20069;-80
2021/08/04 01:26:22;;;;;;;2.03;1.70;;;;;;;;;;4999231;28;20474;-81
2021/08/04 01:28:49;;;;;;;4.13;2.00;;;;;;;;;;4998697;28;20026;-80
2021/08/04 01:31:22;;;;;;;2.83;1.70;;;;;;;;;;4981093;28;20467;-81
2021/08/04 01:33:50;;;;;;;6.63;2.33;;;;;;;;;;4991323;28;20018;-81
2021/08/04 01:36:16;;;;;;;3.53;2.25;;;;;;;;;;4979651;28;20027;-80
2021/08/04 01:38:43;;;;;;;4.07;1.90;;;;;;;;;;4994115;28;20022;-81
2021/08/04 01:41:10;;;;;;;5.13;2.20;;;;;;;;;;4999269;28;20402;-80
2021/08/04 01:43:36;;;;;;;2.83;1.88;;;;;;;;;;4981344;28;20034;-81
2021/08/04 01:46:03;;;;;;;2.60;2.00;;;;;;;;;;4999205;28;20032;-80
2021/08/04 01:48:30;;;;;;;4.55;2.33;;;;;;;;;;4981775;28;20027;-79
2021/08/04 01:50:57;;;;;;;3.88;2.05;;;;;;;;;;4998245;28;20105;-80
2021/08/04 01:53:24;;;;;;;3.20;2.00;;;;;;;;;;5000048;28;20418;-80
2021/08/04 01:55:51;;;;;;;3.78;1.88;;;;;;;;;;5000027;28;20521;-80
2021/08/04 01:58:17;;;;;;;5.88;2.20;;;;;;;;;;4984750;28;20097;-80
2021/08/04 02:00:43;;;;;;;4.47;2.80;;;;;;;;;;5002155;28;20034;-79
2021/08/04 02:03:09;;;;;;;2.72;2.17;;;;;;;;;;4992307;28;20031;-79
2021/08/04 02:05:35;;;;;;;4.97;2.30;;;;;;;;;;4976124;28;20085;-79
2021/08/04 02:08:07;;;;;;;4.03;2.10;;;;;;;;;;4978012;28;20035;-80
2021/08/04 02:10:47;;;;;;;4.83;2.43;;;;;;;;;;4997193;28;20388;-81
2021/08/04 02:13:28;;;;;;;2.55;2.00;;;;;;;;;;4979868;28;20037;-80
2021/08/04 02:15:58;;;;;;;4.35;1.85;;;;;;;;;;4998374;28;20026;-80
2021/08/04 02:18:27;;;;;;;4.55;1.80;;;;;;;;;;4999270;28;20049;-79
2021/08/04 02:20:54;;;;;;;3.30;2.05;;;;;;;;;;4998220;28;20035;-81
2021/08/04 02:23:22;;;;;;;3.47;2.17;;;;;;;;;;4998776;28;20026;-80
2021/08/04 02:25:53;;;;;;;6.10;2.25;;;;;;;;;;4995799;28;20026;-79
2021/08/04 02:28:32;;;;;;;7.20;2.13;;;;;;;;;;4997906;28;20126;-81
2021/08/04 02:30:59;;;;;;;3.38;1.67;;;;;;;;;;4977825;28;20038;-81
2021/08/04 02:33:25;;;;;;;5.10;1.95;;;;;;;;;;4960265;28;20432;-80
2021/08/04 02:35:51;;;;;;;4.07;2.40;;;;;;;;;;4978206;28;20019;-80
2021/08/04 02:38:18;;;;;;;3.08;1.80;;;;;;;;;;4988063;28;20019;-81
2021/08/04 02:40:44;;;;;;;4.28;2.20;;;;;;;;;;4979074;28;20219;-81
2021/08/04 02:43:10;;;;;;;5.78;1.85;;;;;;;;;;4997216;28;20054;-80
2021/08/04 02:45:37;;;;;;;2.25;1.70;;;;;;;;;;4997922;28;20111;-81
2021/08/04 02:48:04;;;;;;;4.75;1.90;;;;;;;;;;4997943;28;20506;-80
2021/08/04 02:50:32;;;;;;;6.38;2.83;;;;;;;;;;4996151;28;20081;-81
2021/08/04 02:52:58;;;;;;;4.28;1.73;;;;;;;;;;4997084;28;20027;-81
2021/08/04 02:55:24;;;;;;;2.50;1.90;;;;;;;;;;4996442;28;20065;-81
2021/08/04 02:57:50;;;;;;;4.45;2.10;;;;;;;;;;4996075;28;20058;-81
2021/08/04 03:00:16;;;;;;;3.22;2.17;;;;;;;;;;4996866;28;20450;-81
2021/08/04 03:02:42;;;;;;;3.72;2.22;;;;;;;;;;4980019;28;20030;-81
2021/08/04 03:05:09;;;;;;;3.20;2.33;;;;;;;;;;4996988;28;20600;-81
2021/08/04 03:07:35;;;;;;;6.18;2.28;;;;;;;;;;4996981;28;20030;-81
2021/08/04 03:10:01;;;;;;;8.93;2.40;;;;;;;;;;4978623;28;20023;-81
2021/08/04 03:12:27;;;;;;;4.38;2.08;;;;;;;;;;4997772;28;20022;-81
2021/08/04 03:14:53;;;;;;;5.63;2.30;;;;;;;;;;5000341;28;20035;-81
2021/08/04 03:17:19;;;;;;;3.75;1.73;;;;;;;;;;5000215;28;20034;-81
2021/08/04 03:19:45;;;;;;;3.15;2.15;;;;;;;;;;4982941;28;20513;-80
2021/08/04 03:22:11;;;;;;;3.90;2.00;;;;;;;;;;5005788;28;20080;-80
2021/08/04 03:24:37;;;;;;;6.18;2.13;;;;;;;;;;5016800;28;20026;-80
2021/08/04 03:27:03;;;;;;;5.45;1.98;;;;;;;;;;5000829;28;20483;-80
2021/08/04 03:29:29;;;;;;;2.85;2.00;;;;;;;;;;5001432;28;20030;-80
2021/08/04 03:31:55;;;;;;;3.83;2.33;;;;;;;;;;4984138;28;20034;-80
2021/08/04 03:34:21;;;;;;;3.42;2.05;;;;;;;;;;5001172;28;20045;-81
2021/08/04 03:36:47;;;;;;;4.40;2.33;;;;;;;;;;5002037;28;20078;-81
2021/08/04 03:39:13;;;;;;;2.90;1.95;;;;;;;;;;4983100;28;20491;-80
2021/08/04 03:41:39;;;;;;;5.18;2.50;;;;;;;;;;5001830;28;20053;-80
2021/08/04 03:44:05;;;;;;;3.85;2.08;;;;;;;;;;4984315;28;20034;-79
2021/08/04 03:46:31;;;;;;;3.35;2.20;;;;;;;;;;5001669;28;20030;-79
2021/08/04 03:48:57;;;;;;;5.15;2.25;;;;;;;;;;5001849;28;20035;-79
2021/08/04 03:51:23;;;;;;;3.60;2.30;;;;;;;;;;5001653;28;20080;-80
2021/08/04 03:53:49;;;;;;;3.33;2.20;;;;;;;;;;4984298;28;20394;-79
2021/08/04 03:56:15;;;;;;;2.80;2.13;;;;;;;;;;5000230;28;20166;-79
2021/08/04 03:58:41;;;;;;;3.63;2.03;;;;;;;;;;4982564;28;20077;-80
2021/08/04 04:01:07;;;;;;;4.68;2.38;;;;;;;;;;4999176;28;20027;-80
2021/08/04 04:03:33;;;;;;;4.90;2.20;;;;;;;;;;4999881;28;20066;-80
2021/08/04 04:05:59;;;;;;;4.80;2.30;;;;;;;;;;5000152;28;20031;-79
2021/08/04 04:08:25;;;;;;;2.28;1.80;;;;;;;;;;4999197;28;20061;-79
2021/08/04 04:10:51;;;;;;;4.30;2.00;;;;;;;;;;4997897;28;20031;-80
2021/08/04 04:13:17;;;;;;;3.70;1.98;;;;;;;;;;4999477;28;20029;-80
2021/08/04 04:15:43;;;;;;;3.33;2.10;;;;;;;;;;4983145;28;20037;-80
2021/08/04 04:18:09;;;;;;;6.00;1.95;;;;;;;;;;4999353;28;20022;-80
2021/08/04 04:20:35;;;;;;;4.18;2.30;;;;;;;;;;4997533;28;20034;-79
2021/08/04 04:23:01;;;;;;;4.75;2.05;;;;;;;;;;4997299;28;20034;-80
2021/08/04 04:25:28;;;;;;;2.67;1.80;;;;;;;;;;4995833;28;20034;-80
2021/08/04 04:27:54;;;;;;;3.67;1.95;;;;;;;;;;4997277;28;20026;-79
2021/08/04 04:30:20;;;;;;;7.30;2.15;;;;;;;;;;4994989;28;20026;-79
2021/08/04 04:32:46;;;;;;;3.30;1.80;;;;;;;;;;4995536;28;20093;-79
2021/08/04 04:35:12;;;;;;;3.63;2.30;;;;;;;;;;4995783;28;20478;-79
2021/08/04 04:37:38;;;;;;;2.78;2.08;;;;;;;;;;4977834;28;20049;-79
2021/08/04 04:40:05;;;;;;;4.28;2.10;;;;;;;;;;4995112;28;20034;-80
2021/08/04 04:42:31;;;;;;;3.85;2.00;;;;;;;;;;4996792;28;20027;-80
2021/08/04 04:44:57;;;;;;;3.67;1.95;;;;;;;;;;4996899;28;20023;-79
2021/08/04 04:47:23;;;;;;;4.30;2.20;;;;;;;;;;4983986;28;20041;-79
2021/08/04 04:49:49;;;;;;;3.53;1.92;;;;;;;;;;4984045;28;20039;-80
2021/08/04 04:52:15;;;;;;;4.72;2.30;;;;;;;;;;4996815;28;20038;-80
2021/08/04 04:54:41;;;;;;;8.27;2.47;;;;;;;;;;4982299;28;20066;-80
2021/08/04 04:57:07;;;;;;;3.15;1.90;;;;;;;;;;4998754;28;20038;-81
2021/08/04 04:59:33;;;;;;;4.60;1.77;;;;;;;;;;4996403;28;20034;-80
2021/08/04 05:01:59;;;;;;;3.10;2.10;;;;;;;;;;4978795;28;20030;-81
2021/08/04 05:04:25;;;;;;;3.28;1.77;;;;;;;;;;4996308;28;20466;-80
2021/08/04 05:06:51;;;;;;;3.50;2.13;;;;;;;;;;4995774;28;20030;-79
2021/08/04 05:09:17;;;;;;;4.85;1.80;;;;;;;;;;4995476;28;20152;-80
2021/08/04 05:11:43;;;;;;;3.92;2.25;;;;;;;;;;4995506;28;20098;-80
2021/08/04 05:14:09;;;;;;;4.72;2.30;;;;;;;;;;4996109;28;20027;-80
2021/08/04 05:16:35;;;;;;;3.40;1.92;;;;;;;;;;4997488;28;20487;-80
2021/08/04 05:19:01;;;;;;;2.63;1.90;;;;;;;;;;4980288;28;20053;-80
2021/08/04 05:21:27;;;;;;;4.70;1.95;;;;;;;;;;4997987;28;20101;-80
2021/08/04 05:23:53;;;;;;;4.63;2.20;;;;;;;;;;4980651;28;20034;-80
2021/08/04 05:26:19;;;;;;;5.95;1.65;;;;;;;;;;4997773;28;20104;-80
2021/08/04 05:28:45;;;;;;;5.50;2.00;;;;;;;;;;4996799;28;20509;-80
2021/08/04 05:31:11;;;;;;;2.70;1.85;;;;;;;;;;4996996;28;20066;-80
2021/08/04 05:33:37;;;;;;;5.78;1.90;;;;;;;;;;4997274;28;20027;-80
2021/08/04 05:36:03;;;;;;;3.10;2.08;;;;;;;;;;4978488;28;20042;-79
2021/08/04 05:38:29;;;;;;;4.13;2.13;;;;;;;;;;4995734;28;20029;-79
2021/08/04 05:40:55;;;;;;;4.93;2.38;;;;;;;;;;4976347;28;20029;-79
2021/08/04 05:43:21;;;;;;;5.65;2.10;;;;;;;;;;4994766;28;20117;-78
2021/08/04 05:45:47;;;;;;;3.55;1.85;;;;;;;;;;4994834;28;20034;-79
2021/08/04 05:48:13;;;;;;;4.97;1.80;;;;;;;;;;4976432;28;20561;-78
2021/08/04 05:50:39;;;;;;;4.65;2.28;;;;;;;;;;4979756;28;20045;-78
2021/08/04 05:53:05;;;;;;;3.20;2.20;;;;;;;;;;4986910;28;20027;-79
2021/08/04 05:55:33;;;;;;;6.45;2.08;;;;;;;;;;4983686;28;20026;-79
2021/08/04 05:57:59;;;;;;;5.43;2.13;;;;;;;;;;4972952;28;20394;-79
2021/08/04 06:00:25;;;;;;;4.53;2.03;;;;;;;;;;4972481;28;20530;-78
2021/08/04 06:02:51;;;;;;;4.78;2.33;;;;;;;;;;4990050;28;20035;-78
2021/08/04 06:05:17;;;;;;;4.25;2.10;;;;;;;;;;4990441;28;20025;-79
2021/08/04 06:07:43;;;;;;;4.68;2.50;;;;;;;;;;4990909;28;20034;-80
2021/08/04 06:10:10;;;;;;;4.13;1.95;;;;;;;;;;4989038;28;20014;-78
2021/08/04 06:12:36;;;;;;;4.00;1.92;;;;;;;;;;4992862;28;20109;-78
2021/08/04 06:15:02;;;;;;;3.78;2.20;;;;;;;;;;4993640;28;20128;-77
2021/08/04 06:17:28;;;;;;;3.40;2.03;;;;;;;;;;4994150;28;20026;-78
2021/08/04 06:19:54;;;;;;;4.10;2.00;;;;;;;;;;4972314;28;20026;-78
2021/08/04 06:22:20;;;;;;;3.50;1.88;;;;;;;;;;4988560;28;20471;-79
2021/08/04 06:24:46;;;;;;;3.58;1.92;;;;;;;;;;4988668;28;20042;-78
2021/08/04 06:27:12;;;;;;;4.72;2.03;;;;;;;;;;4989276;28;20113;-78
2021/08/04 06:29:38;;;;;;;4.32;1.80;;;;;;;;;;4972205;28;20061;-80
2021/08/04 06:32:04;;;;;;;5.13;1.73;;;;;;;;;;4990639;28;20022;-80
2021/08/04 06:34:30;;;;;;;2.72;1.73;;;;;;;;;;4990873;28;20061;-82
2021/08/04 06:36:56;;;;;;;3.10;1.88;;;;;;;;;;4989686;28;20103;-79
2021/08/04 06:39:22;;;;;;;3.80;1.75;;;;;;;;;;4989658;28;20022;-80
2021/08/04 06:41:48;;;;;;;3.95;1.63;;;;;;;;;;4972885;28;20355;-80
2021/08/04 06:44:14;;;;;;;4.45;1.70;;;;;;;;;;4990594;28;20065;-81
2021/08/04 06:46:40;;;;;;;4.43;1.90;;;;;;;;;;4988629;28;20037;-78
2021/08/04 06:49:07;;;;;;;3.05;1.92;;;;;;;;;;4990360;28;20045;-78
2021/08/04 06:51:33;;;;;;;2.30;1.70;;;;;;;;;;4990858;28;20026;-79
2021/08/04 06:53:59;;;;;;;3.65;2.13;;;;;;;;;;4992340;28;20100;-78
2021/08/04 06:56:25;;;;;;;4.15;1.98;;;;;;;;;;4974043;28;20077;-78
2021/08/04 06:58:51;;;;;;;2.75;1.60;;;;;;;;;;4958452;28;20046;-78
2021/08/04 07:01:18;;;;;;;2.00;1.52;;;;;;;;;;4974673;28;20081;-78
2021/08/04 07:03:44;;;;;;;3.55;1.77;;;;;;;;;;4991843;28;20030;-77
2021/08/04 07:06:10;;;;;;;2.42;1.80;;;;;;;;;;4991818;28;20037;-78
2021/08/04 07:08:36;;;;;;;6.53;1.98;;;;;;;;;;4974371;28;20040;-79
2021/08/04 07:11:02;;;;;;;2.25;1.70;;;;;;;;;;4990529;28;20035;-78
2021/08/04 07:13:28;;;;;;;3.45;1.63;;;;;;;;;;4992037;28;20081;-79
2021/08/04 07:15:55;;;;;;;5.78;1.75;;;;;;;;;;4991760;28;20314;-78
2021/08/04 07:18:20;;;;;;;2.60;1.77;;;;;;;;;;4991597;28;20368;-78
2021/08/04 07:20:47;;;;;;;2.53;1.60;;;;;;;;;;4991399;28;20534;-78
2021/08/04 07:23:13;;;;;;;2.67;1.65;;;;;;;;;;4990676;28;20737;-78
2021/08/04 07:25:39;;;;;;;5.72;1.88;;;;;;;;;;4991100;28;20030;-78
2021/08/04 07:28:05;;;;;;;5.43;2.00;;;;;;;;;;4991784;28;20117;-77
2021/08/04 07:30:31;;;;;;;2.58;1.63;;;;;;;;;;4991236;28;20041;-78
2021/08/04 07:32:57;;;;;;;4.72;1.67;;;;;;;;;;4993489;28;20050;-78
2021/08/04 07:35:23;;;;;;;2.58;1.67;;;;;;;;;;4978058;28;20418;-78
2021/08/04 07:37:49;;;;;;;4.13;2.47;;;;;;;;;;4972232;28;20236;-78
2021/08/04 07:40:17;;;;;;;2.70;1.60;;;;;;;;;;4974901;28;20114;-78
2021/08/04 07:42:43;;;;;;;3.72;1.77;;;;;;;;;;4975937;28;20027;-78
2021/08/04 07:45:10;;;;;;;3.63;1.52;;;;;;;;;;4976144;28;20026;-78
2021/08/04 07:47:36;;;;;;;2.08;1.60;;;;;;;;;;4975595;28;20027;-78
2021/08/04 07:50:02;;;;;;;3.45;1.83;;;;;;;;;;4984277;28;20050;-78
2021/08/04 07:52:28;;;;;;;2.22;1.42;;;;;;;;;;4994970;28;20033;-78
2021/08/04 07:54:54;;;;;;;7.75;1.88;;;;;;;;;;4994974;28;20030;-79
2021/08/04 07:57:20;;;;;;;4.10;1.48;;;;;;;;;;4995285;28;20039;-78
2021/08/04 07:59:46;;;;;;;3.92;1.80;;;;;;;;;;4993509;28;20034;-78
2021/08/04 08:02:12;;;;;;;3.05;1.67;;;;;;;;;;4977425;28;20114;-78
2021/08/04 08:04:38;;;;;;;3.10;1.40;;;;;;;;;;4994818;28;20022;-78
2021/08/04 08:07:04;;;;;;;3.50;2.08;;;;;;;;;;4976937;28;20619;-78
2021/08/04 08:09:30;;;;;;;4.90;1.58;;;;;;;;;;4995950;28;20080;-78
2021/08/04 08:11:58;;;;;;;4.35;1.40;;;;;;;;;;4994875;28;20060;-78
2021/08/04 08:14:24;;;;;;;2.97;1.60;;;;;;;;;;4964343;28;20023;-78
2021/08/04 08:16:51;;;;;;;3.30;1.60;;;;;;;;;;4997172;28;20380;-78
2021/08/04 08:19:17;;;;;;;4.88;1.48;;;;;;;;;;4976873;28;20177;-78
2021/08/04 08:21:43;;;;;;;4.35;1.70;;;;;;;;;;4994233;28;20038;-78
2021/08/04 08:24:09;;;;;;;4.68;1.92;;;;;;;;;;4992667;28;20046;-78
2021/08/04 08:26:35;;;;;;;2.88;1.50;;;;;;;;;;4979783;28;20070;-78
2021/08/04 08:29:02;;;;;;;3.95;1.85;;;;;;;;;;4959006;28;20085;-78
2021/08/04 08:31:29;;;;;;;4.28;1.38;;;;;;;;;;4979260;28;20051;-78
2021/08/04 08:33:59;;;;;;;2.30;1.40;;;;;;;;;;4979214;28;20031;-78
2021/08/04 08:36:25;;;;;;;2.45;1.40;;;;;;;;;;4974789;28;20031;-78
2021/08/04 08:38:51;;;;;;;3.05;1.45;;;;;;;;;;4989209;28;20030;-78
2021/08/04 08:41:17;;;;;;;2.65;1.40;;;;;;;;;;4993974;28;20514;-78
2021/08/04 08:43:43;;;;;;;1.80;1.50;;;;;;;;;;4994189;28;20030;-78
2021/08/04 08:46:10;;;;;;;2.08;1.48;;;;;;;;;;4994250;28;20376;-78
2021/08/04 08:48:36;;;;;;;2.38;1.50;;;;;;;;;;4993635;28;20476;-78
2021/08/04 08:51:02;;;;;;;2.92;1.80;;;;;;;;;;4987366;28;20022;-78
2021/08/04 08:53:28;;;;;;;5.13;1.90;;;;;;;;;;4989713;28;20564;-79
2021/08/04 08:55:54;;;;;;;3.58;1.38;;;;;;;;;;4989971;28;20038;-78
2021/08/04 08:58:21;;;;;;;3.83;1.65;;;;;;;;;;4991072;28;20047;-77
2021/08/04 09:00:47;;;;;;;5.13;1.67;;;;;;;;;;4990051;28;20030;-77
2021/08/04 09:03:13;;;;;;;4.30;1.60;;;;;;;;;;4992301;28;20027;-79
2021/08/04 09:05:52;;;;;;;3.40;1.20;;;;;;;;;;4989949;28;20023;-78
2021/08/04 09:08:24;;;;;;;1.75;1.42;;;;;;;;;;4987471;28;20113;-78
2021/08/04 09:10:50;;;;;;;3.67;1.23;;;;;;;;;;4979037;28;20165;-78
2021/08/04 09:13:16;;;;;;;3.15;1.50;;;;;;;;;;4980497;28;20507;-78
2021/08/04 09:15:43;;;;;;;2.08;1.40;;;;;;;;;;4978949;28;20451;-78
2021/08/04 09:18:11;;;;;;;6.32;1.60;;;;;;;;;;4985254;28;20085;-78
2021/08/04 09:20:44;;;;;;;2.28;1.40;;;;;;;;;;4983755;28;20053;-78
2021/08/04 09:23:15;;;;;;;3.38;1.40;;;;;;;;;;4979880;28;20089;-78
2021/08/04 09:25:41;;;;;;;1.83;1.40;;;;;;;;;;4983564;28;20054;-78
2021/08/04 09:28:08;;;;;;;2.25;1.30;;;;;;;;;;5014464;22;20492;-82
2021/08/04 09:30:36;;;;;;;2.50;1.15;;;;;;;;;;5038008;28;20800;-84
2021/08/04 09:33:11;;;;;;;2.47;1.40;;;;;;;;;;5020704;28;20089;-84
2021/08/04 09:35:50;;;;;;;2.22;1.23;;;15.50;99.90;;;;;;5021314;28;20032;-83
2021/08/04 09:38:18;;;;;;;2.10;1.38;;;23.20;99.90;;;;;;5027483;28;20043;-85
2021/08/04 09:40:44;;;;;;;3.20;1.20;;;23.40;99.90;;;;;;5006620;28;20035;-85
2021/08/04 09:43:10;;;;;;;3.17;1.52;;;23.50;99.90;;;;;;5028458;28;20085;-82
2021/08/04 09:45:48;;;;;;;3.38;1.58;;;23.60;99.90;;;;;;5040441;28;20417;-85
2021/08/04 09:48:19;;;;;;;3.10;1.48;;;23.70;99.90;;;;;;5069212;28;20005;-82
2021/08/04 09:50:45;;;;;;;1.58;1.30;;;;;;;;;;5036454;28;20056;-82
2021/08/04 09:53:26;;;;;;;1.75;1.10;;;;;;;;;;5040518;28;20021;-82
2021/08/04 09:56:20;;;;;;;4.00;1.63;;;23.80;99.40;;;;;;5064354;28;20043;-80
2021/08/04 09:58:48;;;;;;;2.33;1.20;;;25.40;95.30;;;;;;5052753;28;20064;-81
2021/08/04 10:01:16;;;;;;;2.67;1.30;;;25.60;94.70;;;;;;5071162;28;20017;-82
2021/08/04 10:04:11;;;;;;;2.05;1.20;;;25.10;93.40;;;;;;5052612;28;20416;-80
2021/08/04 10:06:38;;;;;;;1.80;1.20;;;24.80;93.10;;;;;;5053567;28;20092;-81
2021/08/04 10:09:13;;;;;;;3.38;1.60;;;24.70;93.20;;;;;;5050661;28;20029;-81
2021/08/04 10:11:50;;;;;;;1.55;1.10;;;24.80;93.80;;;;;;5033980;28;20093;-80
2021/08/04 10:14:17;;;;;;;1.95;1.30;;;24.90;94.30;;;;;;5051092;28;20040;-83
2021/08/04 10:16:45;;;;;;;2.75;1.35;;;25.20;92.90;;;;;;5018205;28;20063;-81
2021/08/04 10:19:11;;;;;;;2.45;1.40;;;25.20;92.10;;;;;;5032805;28;20032;-81
2021/08/04 10:21:41;;;;;;;1.13;1.00;;;25.80;91.50;;;;;;5033913;28;20493;-82
2021/08/04 10:24:08;;;;;;;2.33;1.33;;;26.00;91.20;;;;;;5050946;28;20106;-81
2021/08/04 10:26:35;;;;;;;2.47;1.50;;;26.60;89.20;;;;;;5039038;28;20041;-82
2021/08/04 10:29:01;;;;;;;2.13;1.27;;;;;;;;;;5074648;28;20033;-82
2021/08/04 10:31:28;;;;;;;3.10;1.30;;;;;;;;;;5057470;28;20028;-82
2021/08/04 10:33:57;;;;;;;4.53;1.77;;;;;;;;;;5055653;28;20025;-83
2021/08/04 10:36:24;;;;;;;2.05;1.13;;;;;;;;;;5055506;28;20041;-84
2021/08/04 10:38:51;;;;;;;2.38;1.42;;;;;;;;;;5055873;28;20030;-82
2021/08/04 10:41:19;;;;;;;7.43;1.55;;;;;;;;;;5055575;28;20040;-82
2021/08/04 10:44:11;;;;;;;2.22;1.52;;;;;;;;;;5062970;28;20021;-82
2021/08/04 10:46:38;;;;;;;4.75;1.45;;;26.50;88.10;;;;;;5028110;28;20037;-76
2021/08/04 10:49:06;;;;;;;2.15;1.20;;;28.10;79.90;;;;;;5075507;28;20033;-81
2021/08/04 10:51:37;;;;;;;2.90;1.23;;;27.90;79.40;;;;;;5057150;28;20025;-80
2021/08/04 10:54:02;;;;;;;3.05;1.10;;;27.40;75.00;;;;;;5063618;28;20033;-79
2021/08/04 10:56:39;;;;;;;2.17;1.20;;;26.90;76.90;;;;;;5062069;28;20078;-82
2021/08/04 10:59:08;;;;;;;2.20;1.08;;;26.90;77.70;;;;;;5041853;28;20051;-81
2021/08/04 11:01:38;;;;;;;3.33;1.58;;;27.80;76.00;;;;;;5043732;28;20028;-80
2021/08/04 11:04:08;;;;;;;1.67;0.90;;;28.20;74.60;;;;;;5041125;28;20044;-77
2021/08/04 11:06:34;;;;;;;2.40;1.15;;;28.30;75.80;;;;;;5038562;28;20552;-76
2021/08/04 11:09:12;;;;;;;2.13;1.00;;;28.70;74.80;;;;;;5054301;28;20112;-76
2021/08/04 11:11:57;;;;;;;1.67;1.30;;;28.30;74.80;;;;;;5054554;28;20025;-77
2021/08/04 11:14:54;;;;;;;3.67;1.10;;;29.00;71.60;;;;;;5038004;28;20029;-76
2021/08/04 11:17:31;;;;;;;2.90;1.20;;;29.60;70.30;;;;;;5037973;28;20025;-76
2021/08/04 11:20:05;;;;;;;2.60;1.27;;;;;;;;;;5060899;28;20484;-78
2021/08/04 11:22:37;;;;;;;2.90;1.52;;;;;;;;;;5064572;28;20518;-77
2021/08/04 11:25:08;;;;;;;2.33;1.27;;;;;;;;;;5047347;28;20396;-77
2021/08/04 11:27:35;;;;;;;2.55;1.27;;;;;;;;;;5066088;28;20029;-78
2021/08/04 11:30:02;;;;;;;2.85;1.10;;;;;;;;;;5047699;28;20450;-78
2021/08/04 11:32:29;;;;;;;2.03;0.95;;;;;;;;;;5058396;28;20029;-76
2021/08/04 11:34:55;;;;;;;2.28;1.27;;;;;;;;;;5053312;28;20162;-76
2021/08/04 11:37:22;;;;;;;2.15;1.10;;;;;;;;;;5054193;28;20025;-76
2021/08/04 11:39:52;;;;;;;2.22;1.50;;;;;;;;;;5053880;28;20025;-76
2021/08/04 11:42:18;;;;;;;2.72;1.00;;;;;;;;;;5037018;28;20028;-76
2021/08/04 11:44:44;;;;;;;2.50;1.85;;;;;;;;;;5054862;28;20029;-76
2021/08/04 11:47:11;;;;;;;1.42;1.10;;;;;;;;;;5054117;28;20486;-76
2021/08/04 11:49:38;;;;;;;2.45;1.17;;;;;;;;;;5054642;28;20416;-76
2021/08/04 11:52:04;;;;;;;1.55;1.08;;;;;;;;;;5036749;28;20560;-77
2021/08/04 11:54:36;;;;;;;1.17;0.88;;;;;;;;;;5048460;28;20384;-75
2021/08/04 11:57:03;;;;;;;1.90;1.10;;;;;;;;;;5042753;28;20498;-77
2021/08/04 11:59:30;;;;;;;2.40;1.05;;;;;;;;;;5046941;28;20025;-77
2021/08/04 12:01:57;;;;;;;2.70;0.82;;;;;;;;;;5048443;28;20037;-76
2021/08/04 12:04:23;;;;;;;7.90;1.48;;;;;;;;;;5047501;28;20486;-76
2021/08/04 12:07:00;;;;;;;1.55;1.08;;;;;;;;;;5050775;28;20029;-76
2021/08/04 12:09:28;;;;;;;1.88;1.35;;;;;;;;;;5049341;28;20021;-77
2021/08/04 12:11:57;;;;;;;2.42;1.10;;;;;;;;;;5045046;28;20523;-75
2021/08/04 12:14:24;;;;;;;1.98;1.05;;;;;;;;;;5047914;28;20025;-77
2021/08/04 12:16:57;;;;;;;2.92;1.15;;;;;;;;;;5046110;28;20025;-76
2021/08/04 12:19:27;;;;;;;2.78;0.98;;;;;;;;;;5044526;28;20021;-78
2021/08/04 12:21:53;;;;;;;1.67;1.02;;;;;;;;;;5050600;28;20420;-77
2021/08/04 12:24:19;;;;;;;1.45;0.88;;;;;;;;;;5051439;28;20044;-77
2021/08/04 12:26:46;;;;;;;3.05;1.25;;;;;;;;;;5026496;28;20029;-77
2021/08/04 12:29:16;;;;;;;3.55;1.00;;;;;;;;;;5025754;28;20064;-77
2021/08/04 12:31:42;;;;;;;1.50;0.93;;;;;;;;;;5044060;28;20081;-76
2021/08/04 12:34:08;;;;;;;1.58;1.00;;;;;;;;;;5044812;28;20052;-77
2021/08/04 12:36:46;;;;;;;1.88;1.10;;;;;;;;;;5026562;28;20401;-76
2021/08/04 12:39:12;;;;;;;1.85;0.90;;;;;;;;;;5043864;28;20025;-77
2021/08/04 12:41:38;;;;;;;1.25;1.00;;;;;;;;;;5045311;28;20079;-77
2021/08/04 12:44:06;;;;;;;3.17;1.00;;;;;;;;;;5045393;28;20026;-77
2021/08/04 12:46:34;;;;;;;2.75;1.13;;;;;;;;;;5046378;28;20025;-77
2021/08/04 12:49:00;;;;;;;1.88;1.00;;;;;;;;;;5047424;28;20025;-77
2021/08/04 12:51:26;;;;;;;1.73;1.10;;;;;;;;;;5011925;28;20038;-77
2021/08/04 12:54:03;;;;;;;3.38;1.08;;;;;;;;;;5027683;28;20029;-75
2021/08/04 12:56:30;;;;;;;1.13;0.77;;;;;;;;;;5048161;28;20029;-76
2021/08/04 12:58:56;;;;;;;1.27;0.90;;;;;;;;;;5043647;28;20034;-76
2021/08/04 13:01:23;;;;;;;1.30;0.90;;;;;;;;;;5042086;28;20016;-76
2021/08/04 13:03:50;;;;;;;3.15;1.08;;;;;;;;;;5040946;28;20029;-74
2021/08/04 13:06:17;;;;;;;3.00;1.30;;;;;;;;;;5042796;28;20033;-76
2021/08/04 13:08:43;;;;;;;1.00;0.70;;;;;;;;;;5045635;28;20017;-77
2021/08/04 13:11:27;;;;;;;2.05;1.10;;;;;;;;;;5043979;28;20027;-76
2021/08/04 13:14:03;;;;;;;1.73;1.27;;;;;;;;;;5051024;28;20021;-76
2021/08/04 13:16:33;;;;;;;2.45;1.05;;;;;;;;;;5042879;28;20418;-78
2021/08/04 13:19:00;;;;;;;2.47;1.10;;;;;;;;;;5041860;28;20100;-75
2021/08/04 13:21:26;;;;;;;2.28;0.98;;;;;;;;;;5040947;28;20029;-75
2021/08/04 13:23:52;;;;;;;1.35;0.82;;;;;;;;;;5040718;28;20033;-76
2021/08/04 13:26:18;;;;;;;1.65;1.10;;;;;;;;;;5042215;28;20088;-76
2021/08/04 13:28:47;;;;;;;1.73;1.00;;;;;;;;;;5041119;28;20055;-75
2021/08/04 13:31:16;;;;;;;1.13;0.70;;;;;;;;;;5043113;28;20017;-75
2021/08/04 13:33:43;;;;;;;1.00;0.70;;;;;;;;;;5048833;28;20026;-76
2021/08/04 13:36:09;;;;;;;2.67;1.20;;;;;;;;;;5040056;28;20021;-76
2021/08/04 13:38:35;;;;;;;1.92;0.90;;;;;;;;;;5040675;28;20385;-76
2021/08/04 13:41:02;;;;;;;2.20;0.90;;;;;;;;;;5023450;28;20032;-76
2021/08/04 13:43:28;;;;;;;1.98;0.98;;;;;;;;;;5023445;28;20052;-75
2021/08/04 13:45:54;;;;;;;2.05;0.95;;;;;;;;;;5041582;28;20115;-76
2021/08/04 13:48:20;;;;;;;3.83;1.00;;;;;;;;;;5039411;28;20053;-77
2021/08/04 13:50:47;;;;;;;1.65;0.90;;;;;;;;;;5017750;28;20028;-76
2021/08/04 13:53:16;;;;;;;1.55;1.08;;;;;;;;;;5046852;28;20026;-76
2021/08/04 13:55:42;;;;;;;1.83;1.08;;;;;;;;;;5033733;28;20032;-77
2021/08/04 13:58:09;;;;;;;2.38;0.90;;;;;;;;;;5034534;28;20024;-76
2021/08/04 14:00:44;;;;;;;1.52;0.90;;;;;;;;;;5034566;28;20025;-76
2021/08/04 14:03:10;;;;;;;5.00;0.93;;;;;;;;;;5040230;28;20105;-77
2021/08/04 14:05:39;;;;;;;2.30;1.02;;;;;;;;;;5039381;28;20112;-76
2021/08/04 14:08:05;;;;;;;1.70;0.90;;;;;;;;;;5038550;28;20018;-76
2021/08/04 14:10:31;;;;;;;1.02;0.70;;;;;;;;;;5035294;28;20037;-77
2021/08/04 14:12:58;;;;;;;2.10;1.00;;;;;;;;;;5046982;28;20092;-77
2021/08/04 14:15:24;;;;;;;1.13;0.93;;;;;;;;;;5043882;28;20057;-77
2021/08/04 14:17:51;;;;;;;1.20;0.90;;;;;;;;;;5046918;28;20096;-76
2021/08/04 14:20:17;;;;;;;2.40;0.95;;;;;;;;;;5046417;28;20026;-76
2021/08/04 14:22:44;;;;;;;1.55;1.13;;;;;;;;;;5048441;28;20508;-77
2021/08/04 14:25:11;;;;;;;1.42;0.90;;;;;;;;;;5026752;28;20075;-77
2021/08/04 14:27:38;;;;;;;1.50;1.02;;;;;;;;;;5045663;28;20107;-76
2021/08/04 14:30:06;;;;;;;1.80;0.95;;;;;;;;;;5045450;28;20025;-77
2021/08/04 14:32:32;;;;;;;1.00;0.90;;;;;;;;;;5046465;28;20052;-77